sensor_id;sensor_type;location;lat;lon;timestamp;P1;durP1;ratioP1;P2;durP2;ratioP2
42018;SDS011;27703;51.980;5.848;2023-06-24T00:02:10;2.72;;;1.98;;
42018;SDS011;27703;51.980;5.848;2023-06-24T00:04:35;2.40;;;1.77;;
42018;SDS011;27703;51.980;5.848;2023-06-24T00:07:01;3.00;;;2.15;;
42018;SDS011;27703;51.980;5.848;2023-06-24T00:09:27;2.35;;;1.88;;
42018;SDS011;27703;51.980;5.848;2023-06-24T00:11:56;2.42;;;2.13;;
42018;SDS011;27703;51.980;5.848;2023-06-24T00:14:23;3.63;;;2.40;;
42018;SDS011;27703;51.980;5.848;2023-06-24T00:16:51;3.92;;;2.50;;
42018;SDS011;27703;51.980;5.848;2023-06-24T00:19:21;2.00;;;1.67;;
42018;SDS011;27703;51.980;5.848;2023-06-24T00:21:48;2.80;;;2.25;;
42018;SDS011;27703;51.980;5.848;2023-06-24T00:24:16;2.70;;;2.08;;
42018;SDS011;27703;51.980;5.848;2023-06-24T00:26:42;3.03;;;2.33;;
42018;SDS011;27703;51.980;5.848;2023-06-24T00:29:08;2.70;;;2.25;;
42018;SDS011;27703;51.980;5.848;2023-06-24T00:31:34;2.67;;;2.38;;
42018;SDS011;27703;51.980;5.848;2023-06-24T00:33:59;2.88;;;2.30;;
42018;SDS011;27703;51.980;5.848;2023-06-24T00:36:25;2.28;;;1.88;;
42018;SDS011;27703;51.980;5.848;2023-06-24T00:38:51;3.15;;;2.20;;
42018;SDS011;27703;51.980;5.848;2023-06-24T00:41:17;3.97;;;2.15;;
42018;SDS011;27703;51.980;5.848;2023-06-24T00:43:43;2.75;;;2.17;;
42018;SDS011;27703;51.980;5.848;2023-06-24T00:46:09;2.75;;;1.90;;
42018;SDS011;27703;51.980;5.848;2023-06-24T00:48:35;5.60;;;2.45;;
42018;SDS011;27703;51.980;5.848;2023-06-24T00:51:01;3.25;;;1.80;;
42018;SDS011;27703;51.980;5.848;2023-06-24T00:53:27;2.90;;;2.60;;
42018;SDS011;27703;51.980;5.848;2023-06-24T00:55:53;3.10;;;2.00;;
42018;SDS011;27703;51.980;5.848;2023-06-24T00:58:20;3.17;;;2.08;;
42018;SDS011;27703;51.980;5.848;2023-06-24T01:00:46;4.75;;;2.55;;
42018;SDS011;27703;51.980;5.848;2023-06-24T01:03:22;2.42;;;2.20;;
42018;SDS011;27703;51.980;5.848;2023-06-24T01:05:48;3.85;;;3.22;;
42018;SDS011;27703;51.980;5.848;2023-06-24T01:08:14;3.85;;;3.03;;
42018;SDS011;27703;51.980;5.848;2023-06-24T01:10:40;3.47;;;2.03;;
42018;SDS011;27703;51.980;5.848;2023-06-24T01:13:07;3.10;;;2.80;;
42018;SDS011;27703;51.980;5.848;2023-06-24T01:15:33;3.67;;;2.25;;
42018;SDS011;27703;51.980;5.848;2023-06-24T01:29:34;3.03;;;2.42;;
42018;SDS011;27703;51.980;5.848;2023-06-24T01:32:21;3.17;;;2.88;;
42018;SDS011;27703;51.980;5.848;2023-06-24T01:35:02;2.63;;;2.42;;
42018;SDS011;27703;51.980;5.848;2023-06-24T01:37:41;3.53;;;3.22;;
42018;SDS011;27703;51.980;5.848;2023-06-24T01:40:10;3.75;;;2.75;;
42018;SDS011;27703;51.980;5.848;2023-06-24T01:42:41;3.90;;;2.72;;
42018;SDS011;27703;51.980;5.848;2023-06-24T01:45:09;4.20;;;2.75;;
42018;SDS011;27703;51.980;5.848;2023-06-24T01:47:38;5.32;;;3.13;;
42018;SDS011;27703;51.980;5.848;2023-06-24T01:50:08;4.13;;;3.20;;
42018;SDS011;27703;51.980;5.848;2023-06-24T01:52:36;3.75;;;3.05;;
42018;SDS011;27703;51.980;5.848;2023-06-24T01:55:03;3.22;;;3.00;;
42018;SDS011;27703;51.980;5.848;2023-06-24T01:57:31;3.30;;;2.72;;
42018;SDS011;27703;51.980;5.848;2023-06-24T01:59:59;3.03;;;2.70;;
42018;SDS011;27703;51.980;5.848;2023-06-24T02:02:27;3.83;;;3.50;;
42018;SDS011;27703;51.980;5.848;2023-06-24T02:04:53;4.97;;;3.45;;
42018;SDS011;27703;51.980;5.848;2023-06-24T02:07:20;3.75;;;3.45;;
42018;SDS011;27703;51.980;5.848;2023-06-24T02:09:48;3.15;;;2.88;;
42018;SDS011;27703;51.980;5.848;2023-06-24T02:12:15;3.65;;;3.22;;
42018;SDS011;27703;51.980;5.848;2023-06-24T02:14:42;4.63;;;3.33;;
42018;SDS011;27703;51.980;5.848;2023-06-24T02:17:09;4.18;;;3.78;;
42018;SDS011;27703;51.980;5.848;2023-06-24T02:19:36;4.13;;;3.72;;
42018;SDS011;27703;51.980;5.848;2023-06-24T02:22:03;2.63;;;2.42;;
42018;SDS011;27703;51.980;5.848;2023-06-24T02:24:34;3.60;;;3.05;;
42018;SDS011;27703;51.980;5.848;2023-06-24T02:27:01;4.15;;;3.38;;
42018;SDS011;27703;51.980;5.848;2023-06-24T02:29:27;4.40;;;4.00;;
42018;SDS011;27703;51.980;5.848;2023-06-24T02:31:55;5.38;;;3.85;;
42018;SDS011;27703;51.980;5.848;2023-06-24T02:34:22;5.25;;;4.53;;
42018;SDS011;27703;51.980;5.848;2023-06-24T02:36:48;4.68;;;3.85;;
42018;SDS011;27703;51.980;5.848;2023-06-24T02:39:13;3.83;;;3.35;;
42018;SDS011;27703;51.980;5.848;2023-06-24T02:41:39;3.80;;;3.50;;
42018;SDS011;27703;51.980;5.848;2023-06-24T02:44:05;3.88;;;3.58;;
42018;SDS011;27703;51.980;5.848;2023-06-24T02:46:30;3.88;;;3.58;;
42018;SDS011;27703;51.980;5.848;2023-06-24T02:48:59;3.90;;;3.60;;
42018;SDS011;27703;51.980;5.848;2023-06-24T02:51:26;4.50;;;3.90;;
42018;SDS011;27703;51.980;5.848;2023-06-24T02:53:51;3.90;;;3.60;;
42018;SDS011;27703;51.980;5.848;2023-06-24T02:56:17;4.07;;;3.67;;
42018;SDS011;27703;51.980;5.848;2023-06-24T02:58:45;4.57;;;3.72;;
42018;SDS011;27703;51.980;5.848;2023-06-24T03:01:12;3.63;;;3.33;;
42018;SDS011;27703;51.980;5.848;2023-06-24T03:03:39;4.82;;;4.40;;
42018;SDS011;27703;51.980;5.848;2023-06-24T03:06:06;3.47;;;3.17;;
42018;SDS011;27703;51.980;5.848;2023-06-24T03:08:31;3.45;;;3.15;;
42018;SDS011;27703;51.980;5.848;2023-06-24T03:10:57;4.20;;;3.83;;
42018;SDS011;27703;51.980;5.848;2023-06-24T03:13:23;5.20;;;4.18;;
42018;SDS011;27703;51.980;5.848;2023-06-24T03:15:49;4.60;;;3.88;;
42018;SDS011;27703;51.980;5.848;2023-06-24T03:18:15;4.43;;;4.03;;
42018;SDS011;27703;51.980;5.848;2023-06-24T03:20:42;4.82;;;4.35;;
42018;SDS011;27703;51.980;5.848;2023-06-24T03:23:08;5.20;;;4.78;;
42018;SDS011;27703;51.980;5.848;2023-06-24T03:25:35;4.75;;;4.35;;
42018;SDS011;27703;51.980;5.848;2023-06-24T03:28:01;4.88;;;4.47;;
42018;SDS011;27703;51.980;5.848;2023-06-24T03:30:28;5.97;;;4.40;;
42018;SDS011;27703;51.980;5.848;2023-06-24T03:32:55;4.88;;;4.45;;
42018;SDS011;27703;51.980;5.848;2023-06-24T03:35:22;4.03;;;3.70;;
42018;SDS011;27703;51.980;5.848;2023-06-24T03:37:48;5.20;;;4.38;;
42018;SDS011;27703;51.980;5.848;2023-06-24T03:40:14;4.55;;;4.15;;
42018;SDS011;27703;51.980;5.848;2023-06-24T03:42:39;4.40;;;3.92;;
42018;SDS011;27703;51.980;5.848;2023-06-24T03:45:05;4.20;;;3.80;;
42018;SDS011;27703;51.980;5.848;2023-06-24T03:47:31;4.20;;;3.78;;
42018;SDS011;27703;51.980;5.848;2023-06-24T03:49:57;4.68;;;4.20;;
42018;SDS011;27703;51.980;5.848;2023-06-24T03:52:22;6.68;;;4.55;;
42018;SDS011;27703;51.980;5.848;2023-06-24T03:54:48;4.78;;;4.32;;
42018;SDS011;27703;51.980;5.848;2023-06-24T03:57:13;5.05;;;4.55;;
42018;SDS011;27703;51.980;5.848;2023-06-24T03:59:39;5.30;;;4.80;;
42018;SDS011;27703;51.980;5.848;2023-06-24T04:02:05;6.28;;;5.68;;
42018;SDS011;27703;51.980;5.848;2023-06-24T04:04:34;6.35;;;5.20;;
42018;SDS011;27703;51.980;5.848;2023-06-24T04:07:00;5.43;;;4.95;;
42018;SDS011;27703;51.980;5.848;2023-06-24T04:09:26;4.43;;;4.05;;
42018;SDS011;27703;51.980;5.848;2023-06-24T04:11:54;5.30;;;4.07;;
42018;SDS011;27703;51.980;5.848;2023-06-24T04:14:19;6.13;;;3.85;;
42018;SDS011;27703;51.980;5.848;2023-06-24T04:16:45;4.47;;;4.07;;
42018;SDS011;27703;51.980;5.848;2023-06-24T04:19:10;4.90;;;4.38;;
42018;SDS011;27703;51.980;5.848;2023-06-24T04:21:36;3.95;;;3.55;;
42018;SDS011;27703;51.980;5.848;2023-06-24T04:24:02;4.82;;;4.43;;
42018;SDS011;27703;51.980;5.848;2023-06-24T04:26:28;5.88;;;5.28;;
42018;SDS011;27703;51.980;5.848;2023-06-24T04:28:54;5.97;;;5.30;;
42018;SDS011;27703;51.980;5.848;2023-06-24T04:31:19;5.32;;;4.82;;
42018;SDS011;27703;51.980;5.848;2023-06-24T04:33:45;6.43;;;5.38;;
42018;SDS011;27703;51.980;5.848;2023-06-24T04:36:11;5.10;;;4.63;;
42018;SDS011;27703;51.980;5.848;2023-06-24T04:38:36;4.68;;;4.10;;
42018;SDS011;27703;51.980;5.848;2023-06-24T04:41:02;4.88;;;4.38;;
42018;SDS011;27703;51.980;5.848;2023-06-24T04:43:28;5.30;;;4.90;;
42018;SDS011;27703;51.980;5.848;2023-06-24T04:45:54;5.43;;;4.80;;
42018;SDS011;27703;51.980;5.848;2023-06-24T04:48:22;5.18;;;4.70;;
42018;SDS011;27703;51.980;5.848;2023-06-24T04:50:48;6.25;;;5.75;;
42018;SDS011;27703;51.980;5.848;2023-06-24T04:53:14;6.88;;;5.20;;
42018;SDS011;27703;51.980;5.848;2023-06-24T04:55:39;6.32;;;5.72;;
42018;SDS011;27703;51.980;5.848;2023-06-24T04:58:05;6.90;;;6.25;;
42018;SDS011;27703;51.980;5.848;2023-06-24T05:00:31;6.72;;;5.75;;
42018;SDS011;27703;51.980;5.848;2023-06-24T05:02:56;7.35;;;6.65;;
42018;SDS011;27703;51.980;5.848;2023-06-24T05:05:22;7.28;;;6.40;;
42018;SDS011;27703;51.980;5.848;2023-06-24T05:07:48;5.40;;;4.95;;
42018;SDS011;27703;51.980;5.848;2023-06-24T05:10:14;8.50;;;5.82;;
42018;SDS011;27703;51.980;5.848;2023-06-24T05:12:40;6.72;;;5.78;;
42018;SDS011;27703;51.980;5.848;2023-06-24T05:15:05;7.85;;;5.82;;
42018;SDS011;27703;51.980;5.848;2023-06-24T05:17:32;6.55;;;5.65;;
42018;SDS011;27703;51.980;5.848;2023-06-24T05:19:57;5.85;;;5.32;;
42018;SDS011;27703;51.980;5.848;2023-06-24T05:22:23;6.63;;;6.03;;
42018;SDS011;27703;51.980;5.848;2023-06-24T05:24:49;6.22;;;5.63;;
42018;SDS011;27703;51.980;5.848;2023-06-24T05:27:15;5.75;;;5.22;;
42018;SDS011;27703;51.980;5.848;2023-06-24T05:29:40;6.07;;;5.45;;
42018;SDS011;27703;51.980;5.848;2023-06-24T05:32:06;6.07;;;5.47;;
42018;SDS011;27703;51.980;5.848;2023-06-24T05:34:32;6.60;;;5.45;;
42018;SDS011;27703;51.980;5.848;2023-06-24T05:36:58;5.82;;;5.32;;
42018;SDS011;27703;51.980;5.848;2023-06-24T05:39:24;6.13;;;5.30;;
42018;SDS011;27703;51.980;5.848;2023-06-24T05:41:50;5.28;;;4.80;;
42018;SDS011;27703;51.980;5.848;2023-06-24T05:44:16;7.43;;;5.35;;
42018;SDS011;27703;51.980;5.848;2023-06-24T05:46:43;5.38;;;4.07;;
42018;SDS011;27703;51.980;5.848;2023-06-24T05:49:12;5.07;;;3.30;;
42018;SDS011;27703;51.980;5.848;2023-06-24T05:51:37;6.07;;;4.47;;
42018;SDS011;27703;51.980;5.848;2023-06-24T05:54:03;4.13;;;3.42;;
42018;SDS011;27703;51.980;5.848;2023-06-24T05:56:29;5.00;;;4.50;;
42018;SDS011;27703;51.980;5.848;2023-06-24T05:58:54;3.60;;;3.13;;
42018;SDS011;27703;51.980;5.848;2023-06-24T06:01:20;5.75;;;3.35;;
42018;SDS011;27703;51.980;5.848;2023-06-24T06:03:46;5.30;;;3.80;;
42018;SDS011;27703;51.980;5.848;2023-06-24T06:06:12;3.45;;;2.35;;
42018;SDS011;27703;51.980;5.848;2023-06-24T06:08:37;3.63;;;2.80;;
42018;SDS011;27703;51.980;5.848;2023-06-24T06:11:03;3.92;;;3.33;;
42018;SDS011;27703;51.980;5.848;2023-06-24T06:13:29;5.38;;;4.07;;
42018;SDS011;27703;51.980;5.848;2023-06-24T06:15:55;5.03;;;3.40;;
42018;SDS011;27703;51.980;5.848;2023-06-24T06:18:21;4.22;;;3.25;;
42018;SDS011;27703;51.980;5.848;2023-06-24T06:20:47;6.00;;;4.30;;
42018;SDS011;27703;51.980;5.848;2023-06-24T06:23:12;4.97;;;4.47;;
42018;SDS011;27703;51.980;5.848;2023-06-24T06:25:38;6.53;;;4.28;;
42018;SDS011;27703;51.980;5.848;2023-06-24T06:28:04;5.63;;;3.63;;
42018;SDS011;27703;51.980;5.848;2023-06-24T06:30:30;4.18;;;3.53;;
42018;SDS011;27703;51.980;5.848;2023-06-24T06:32:55;5.78;;;3.90;;
42018;SDS011;27703;51.980;5.848;2023-06-24T06:35:21;4.72;;;3.38;;
42018;SDS011;27703;51.980;5.848;2023-06-24T06:37:46;6.38;;;4.47;;
42018;SDS011;27703;51.980;5.848;2023-06-24T06:40:17;3.37;;;2.97;;
42018;SDS011;27703;51.980;5.848;2023-06-24T06:42:43;7.43;;;4.45;;
42018;SDS011;27703;51.980;5.848;2023-06-24T06:45:08;4.30;;;3.35;;
42018;SDS011;27703;51.980;5.848;2023-06-24T06:47:35;3.63;;;3.08;;
42018;SDS011;27703;51.980;5.848;2023-06-24T06:50:00;8.25;;;3.75;;
42018;SDS011;27703;51.980;5.848;2023-06-24T06:52:26;4.15;;;3.65;;
42018;SDS011;27703;51.980;5.848;2023-06-24T06:54:53;5.07;;;3.33;;
42018;SDS011;27703;51.980;5.848;2023-06-24T06:57:19;5.30;;;3.30;;
42018;SDS011;27703;51.980;5.848;2023-06-24T06:59:44;5.03;;;2.85;;
42018;SDS011;27703;51.980;5.848;2023-06-24T07:02:10;3.97;;;2.78;;
42018;SDS011;27703;51.980;5.848;2023-06-24T07:04:35;4.20;;;2.85;;
42018;SDS011;27703;51.980;5.848;2023-06-24T07:07:01;4.38;;;3.03;;
42018;SDS011;27703;51.980;5.848;2023-06-24T07:09:27;3.65;;;2.88;;
42018;SDS011;27703;51.980;5.848;2023-06-24T07:11:53;3.80;;;3.40;;
42018;SDS011;27703;51.980;5.848;2023-06-24T07:14:18;4.00;;;2.22;;
42018;SDS011;27703;51.980;5.848;2023-06-24T07:16:44;2.72;;;1.85;;
42018;SDS011;27703;51.980;5.848;2023-06-24T07:19:09;3.42;;;1.58;;
42018;SDS011;27703;51.980;5.848;2023-06-24T07:21:35;4.63;;;1.83;;
42018;SDS011;27703;51.980;5.848;2023-06-24T07:24:00;2.78;;;1.42;;
42018;SDS011;27703;51.980;5.848;2023-06-24T07:26:26;2.05;;;1.17;;
42018;SDS011;27703;51.980;5.848;2023-06-24T07:28:53;3.17;;;1.88;;
42018;SDS011;27703;51.980;5.848;2023-06-24T07:31:21;3.03;;;1.30;;
42018;SDS011;27703;51.980;5.848;2023-06-24T07:33:46;3.25;;;1.75;;
42018;SDS011;27703;51.980;5.848;2023-06-24T07:36:12;2.33;;;1.00;;
42018;SDS011;27703;51.980;5.848;2023-06-24T07:38:38;3.70;;;1.50;;
42018;SDS011;27703;51.980;5.848;2023-06-24T07:41:04;3.05;;;2.05;;
42018;SDS011;27703;51.980;5.848;2023-06-24T07:43:30;2.80;;;1.48;;
42018;SDS011;27703;51.980;5.848;2023-06-24T07:45:55;3.83;;;2.08;;
42018;SDS011;27703;51.980;5.848;2023-06-24T07:48:21;3.60;;;1.65;;
42018;SDS011;27703;51.980;5.848;2023-06-24T07:50:46;2.38;;;1.33;;
42018;SDS011;27703;51.980;5.848;2023-06-24T07:53:12;2.15;;;1.17;;
42018;SDS011;27703;51.980;5.848;2023-06-24T07:55:37;4.65;;;1.80;;
42018;SDS011;27703;51.980;5.848;2023-06-24T07:58:03;7.78;;;2.03;;
42018;SDS011;27703;51.980;5.848;2023-06-24T08:00:30;3.85;;;1.77;;
42018;SDS011;27703;51.980;5.848;2023-06-24T08:02:57;7.20;;;2.33;;
42018;SDS011;27703;51.980;5.848;2023-06-24T08:05:23;3.42;;;1.65;;
42018;SDS011;27703;51.980;5.848;2023-06-24T08:07:50;4.30;;;2.33;;
42018;SDS011;27703;51.980;5.848;2023-06-24T08:10:16;3.42;;;1.38;;
42018;SDS011;27703;51.980;5.848;2023-06-24T08:12:41;3.80;;;1.73;;
42018;SDS011;27703;51.980;5.848;2023-06-24T08:15:07;3.22;;;1.13;;
42018;SDS011;27703;51.980;5.848;2023-06-24T08:17:33;2.03;;;0.90;;
42018;SDS011;27703;51.980;5.848;2023-06-24T08:19:59;2.85;;;1.27;;
42018;SDS011;27703;51.980;5.848;2023-06-24T08:22:25;2.33;;;0.90;;
42018;SDS011;27703;51.980;5.848;2023-06-24T08:24:51;2.05;;;1.10;;
42018;SDS011;27703;51.980;5.848;2023-06-24T08:27:16;3.47;;;1.30;;
42018;SDS011;27703;51.980;5.848;2023-06-24T08:29:42;3.17;;;1.50;;
42018;SDS011;27703;51.980;5.848;2023-06-24T08:32:07;1.77;;;0.93;;
42018;SDS011;27703;51.980;5.848;2023-06-24T08:34:33;1.65;;;0.88;;
42018;SDS011;27703;51.980;5.848;2023-06-24T08:36:59;1.65;;;0.80;;
42018;SDS011;27703;51.980;5.848;2023-06-24T08:39:24;2.22;;;0.95;;
42018;SDS011;27703;51.980;5.848;2023-06-24T08:41:50;3.65;;;1.48;;
42018;SDS011;27703;51.980;5.848;2023-06-24T08:44:16;1.83;;;1.25;;
42018;SDS011;27703;51.980;5.848;2023-06-24T08:46:42;3.85;;;0.90;;
42018;SDS011;27703;51.980;5.848;2023-06-24T08:49:11;1.60;;;0.60;;
42018;SDS011;27703;51.980;5.848;2023-06-24T08:51:46;2.65;;;1.20;;
42018;SDS011;27703;51.980;5.848;2023-06-24T08:54:19;2.15;;;1.70;;
42018;SDS011;27703;51.980;5.848;2023-06-24T08:56:46;2.55;;;1.02;;
42018;SDS011;27703;51.980;5.848;2023-06-24T08:59:11;2.53;;;1.48;;
42018;SDS011;27703;51.980;5.848;2023-06-24T09:01:37;2.72;;;1.63;;
42018;SDS011;27703;51.980;5.848;2023-06-24T09:04:03;3.20;;;1.77;;
42018;SDS011;27703;51.980;5.848;2023-06-24T09:06:30;4.63;;;2.13;;
42018;SDS011;27703;51.980;5.848;2023-06-24T09:08:56;2.65;;;1.85;;
42018;SDS011;27703;51.980;5.848;2023-06-24T09:11:23;2.63;;;1.80;;
42018;SDS011;27703;51.980;5.848;2023-06-24T09:13:58;4.30;;;1.70;;
42018;SDS011;27703;51.980;5.848;2023-06-24T09:16:25;3.70;;;2.40;;
42018;SDS011;27703;51.980;5.848;2023-06-24T09:18:51;3.65;;;1.90;;
42018;SDS011;27703;51.980;5.848;2023-06-24T09:21:21;2.13;;;1.50;;
42018;SDS011;27703;51.980;5.848;2023-06-24T09:23:55;2.63;;;1.45;;
42018;SDS011;27703;51.980;5.848;2023-06-24T09:26:26;3.05;;;1.98;;
42018;SDS011;27703;51.980;5.848;2023-06-24T09:28:53;3.75;;;2.83;;
42018;SDS011;27703;51.980;5.848;2023-06-24T09:31:19;2.33;;;1.20;;
42018;SDS011;27703;51.980;5.848;2023-06-24T09:33:45;3.00;;;1.35;;
42018;SDS011;27703;51.980;5.848;2023-06-24T09:36:12;3.13;;;1.80;;
42018;SDS011;27703;51.980;5.848;2023-06-24T09:38:42;2.13;;;1.10;;
42018;SDS011;27703;51.980;5.848;2023-06-24T09:41:09;1.42;;;0.85;;
42018;SDS011;27703;51.980;5.848;2023-06-24T09:43:35;2.00;;;1.00;;
42018;SDS011;27703;51.980;5.848;2023-06-24T09:46:02;3.80;;;0.93;;
42018;SDS011;27703;51.980;5.848;2023-06-24T09:48:29;1.65;;;0.60;;
42018;SDS011;27703;51.980;5.848;2023-06-24T09:50:59;1.73;;;0.77;;
42018;SDS011;27703;51.980;5.848;2023-06-24T09:53:26;1.85;;;0.88;;
42018;SDS011;27703;51.980;5.848;2023-06-24T09:55:56;1.67;;;0.90;;
42018;SDS011;27703;51.980;5.848;2023-06-24T09:58:24;1.98;;;0.88;;
42018;SDS011;27703;51.980;5.848;2023-06-24T10:00:50;1.60;;;0.80;;
42018;SDS011;27703;51.980;5.848;2023-06-24T10:03:17;2.03;;;1.10;;
42018;SDS011;27703;51.980;5.848;2023-06-24T10:05:43;1.58;;;0.93;;
42018;SDS011;27703;51.980;5.848;2023-06-24T10:08:09;2.90;;;1.20;;
42018;SDS011;27703;51.980;5.848;2023-06-24T10:10:36;2.28;;;1.27;;
42018;SDS011;27703;51.980;5.848;2023-06-24T10:13:01;2.58;;;1.33;;
42018;SDS011;27703;51.980;5.848;2023-06-24T10:15:27;2.22;;;1.13;;
42018;SDS011;27703;51.980;5.848;2023-06-24T10:17:53;2.08;;;0.80;;
42018;SDS011;27703;51.980;5.848;2023-06-24T10:20:24;1.60;;;0.90;;
42018;SDS011;27703;51.980;5.848;2023-06-24T10:22:51;2.03;;;0.75;;
42018;SDS011;27703;51.980;5.848;2023-06-24T10:25:17;2.08;;;0.85;;
42018;SDS011;27703;51.980;5.848;2023-06-24T10:27:43;2.15;;;0.98;;
42018;SDS011;27703;51.980;5.848;2023-06-24T10:30:16;2.15;;;1.08;;
42018;SDS011;27703;51.980;5.848;2023-06-24T10:32:44;4.05;;;1.30;;
42018;SDS011;27703;51.980;5.848;2023-06-24T10:35:43;1.70;;;0.95;;
42018;SDS011;27703;51.980;5.848;2023-06-24T10:38:06;1.95;;;1.00;;
42018;SDS011;27703;51.980;5.848;2023-06-24T10:40:44;2.58;;;1.75;;
42018;SDS011;27703;51.980;5.848;2023-06-24T10:43:28;3.35;;;0.80;;
42018;SDS011;27703;51.980;5.848;2023-06-24T10:45:55;2.58;;;0.75;;
42018;SDS011;27703;51.980;5.848;2023-06-24T10:48:23;1.92;;;1.00;;
42018;SDS011;27703;51.980;5.848;2023-06-24T10:50:48;2.15;;;1.25;;
42018;SDS011;27703;51.980;5.848;2023-06-24T10:53:14;1.95;;;1.33;;
42018;SDS011;27703;51.980;5.848;2023-06-24T10:55:40;3.95;;;1.33;;
42018;SDS011;27703;51.980;5.848;2023-06-24T10:58:12;2.45;;;1.05;;
42018;SDS011;27703;51.980;5.848;2023-06-24T11:00:40;2.20;;;1.33;;
42018;SDS011;27703;51.980;5.848;2023-06-24T11:03:10;2.53;;;1.83;;
42018;SDS011;27703;51.980;5.848;2023-06-24T11:05:38;1.90;;;1.00;;
42018;SDS011;27703;51.980;5.848;2023-06-24T11:08:05;2.40;;;1.20;;
42018;SDS011;27703;51.980;5.848;2023-06-24T11:10:31;2.90;;;1.38;;
42018;SDS011;27703;51.980;5.848;2023-06-24T11:12:57;4.07;;;1.90;;
42018;SDS011;27703;51.980;5.848;2023-06-24T11:15:29;2.83;;;1.77;;
42018;SDS011;27703;51.980;5.848;2023-06-24T11:17:55;4.30;;;1.45;;
42018;SDS011;27703;51.980;5.848;2023-06-24T11:20:20;2.42;;;1.48;;
42018;SDS011;27703;51.980;5.848;2023-06-24T11:22:46;5.18;;;1.60;;
42018;SDS011;27703;51.980;5.848;2023-06-24T11:25:18;2.15;;;0.98;;
42018;SDS011;27703;51.980;5.848;2023-06-24T11:27:45;2.30;;;1.75;;
42018;SDS011;27703;51.980;5.848;2023-06-24T11:30:11;1.27;;;0.63;;
42018;SDS011;27703;51.980;5.848;2023-06-24T11:32:41;1.65;;;0.90;;
42018;SDS011;27703;51.980;5.848;2023-06-24T11:35:08;3.55;;;1.05;;
42018;SDS011;27703;51.980;5.848;2023-06-24T11:37:35;2.38;;;1.40;;
42018;SDS011;27703;51.980;5.848;2023-06-24T11:40:02;2.15;;;1.55;;
42018;SDS011;27703;51.980;5.848;2023-06-24T11:42:30;3.33;;;1.17;;
42018;SDS011;27703;51.980;5.848;2023-06-24T11:45:03;2.15;;;1.40;;
42018;SDS011;27703;51.980;5.848;2023-06-24T11:47:31;2.72;;;1.10;;
42018;SDS011;27703;51.980;5.848;2023-06-24T11:49:58;3.20;;;0.82;;
42018;SDS011;27703;51.980;5.848;2023-06-24T11:55:00;3.63;;;1.98;;
42018;SDS011;27703;51.980;5.848;2023-06-24T12:00:40;1.90;;;0.60;;
42018;SDS011;27703;51.980;5.848;2023-06-24T12:03:08;1.63;;;0.88;;
42018;SDS011;27703;51.980;5.848;2023-06-24T12:05:35;1.98;;;0.95;;
42018;SDS011;27703;51.980;5.848;2023-06-24T12:08:02;2.65;;;0.93;;
42018;SDS011;27703;51.980;5.848;2023-06-24T12:10:31;3.70;;;0.60;;
42018;SDS011;27703;51.980;5.848;2023-06-24T12:12:58;1.40;;;0.70;;
42018;SDS011;27703;51.980;5.848;2023-06-24T12:15:25;1.92;;;1.10;;
42018;SDS011;27703;51.980;5.848;2023-06-24T12:17:51;1.73;;;0.80;;
42018;SDS011;27703;51.980;5.848;2023-06-24T12:20:16;1.55;;;0.70;;
42018;SDS011;27703;51.980;5.848;2023-06-24T12:22:42;1.15;;;0.50;;
42018;SDS011;27703;51.980;5.848;2023-06-24T12:25:09;2.67;;;1.20;;
42018;SDS011;27703;51.980;5.848;2023-06-24T12:27:35;1.92;;;0.77;;
42018;SDS011;27703;51.980;5.848;2023-06-24T12:30:00;1.90;;;0.80;;
42018;SDS011;27703;51.980;5.848;2023-06-24T12:32:26;2.80;;;0.75;;
42018;SDS011;27703;51.980;5.848;2023-06-24T12:34:52;1.80;;;0.85;;
42018;SDS011;27703;51.980;5.848;2023-06-24T12:37:18;1.38;;;0.70;;
42018;SDS011;27703;51.980;5.848;2023-06-24T12:39:44;1.73;;;1.10;;
42018;SDS011;27703;51.980;5.848;2023-06-24T12:42:10;2.35;;;0.90;;
42018;SDS011;27703;51.980;5.848;2023-06-24T12:44:36;1.63;;;0.95;;
42018;SDS011;27703;51.980;5.848;2023-06-24T12:47:01;1.83;;;0.82;;
42018;SDS011;27703;51.980;5.848;2023-06-24T12:49:27;1.50;;;0.70;;
42018;SDS011;27703;51.980;5.848;2023-06-24T12:51:53;3.65;;;1.50;;
42018;SDS011;27703;51.980;5.848;2023-06-24T12:54:18;1.33;;;0.70;;
42018;SDS011;27703;51.980;5.848;2023-06-24T12:56:44;1.50;;;0.70;;
42018;SDS011;27703;51.980;5.848;2023-06-24T12:59:11;1.85;;;0.77;;
42018;SDS011;27703;51.980;5.848;2023-06-24T13:01:36;1.30;;;0.70;;
42018;SDS011;27703;51.980;5.848;2023-06-24T13:04:02;1.25;;;0.70;;
42018;SDS011;27703;51.980;5.848;2023-06-24T13:06:27;1.60;;;0.73;;
42018;SDS011;27703;51.980;5.848;2023-06-24T13:08:53;2.22;;;1.23;;
42018;SDS011;27703;51.980;5.848;2023-06-24T13:11:18;1.25;;;0.52;;
42018;SDS011;27703;51.980;5.848;2023-06-24T13:13:44;1.48;;;0.75;;
42018;SDS011;27703;51.980;5.848;2023-06-24T13:16:10;2.33;;;1.20;;
42018;SDS011;27703;51.980;5.848;2023-06-24T13:18:35;1.15;;;0.60;;
42018;SDS011;27703;51.980;5.848;2023-06-24T13:21:01;1.10;;;0.60;;
42018;SDS011;27703;51.980;5.848;2023-06-24T13:23:27;1.20;;;0.75;;
42018;SDS011;27703;51.980;5.848;2023-06-24T13:25:53;2.80;;;0.80;;
42018;SDS011;27703;51.980;5.848;2023-06-24T13:28:18;1.20;;;0.73;;
42018;SDS011;27703;51.980;5.848;2023-06-24T13:30:44;2.22;;;0.70;;
42018;SDS011;27703;51.980;5.848;2023-06-24T13:33:09;1.45;;;0.80;;
42018;SDS011;27703;51.980;5.848;2023-06-24T13:35:35;1.95;;;0.70;;
42018;SDS011;27703;51.980;5.848;2023-06-24T13:38:00;2.15;;;0.80;;
42018;SDS011;27703;51.980;5.848;2023-06-24T13:40:26;1.55;;;0.60;;
42018;SDS011;27703;51.980;5.848;2023-06-24T13:42:51;1.48;;;0.95;;
42018;SDS011;27703;51.980;5.848;2023-06-24T13:45:17;3.45;;;1.02;;
42018;SDS011;27703;51.980;5.848;2023-06-24T13:47:43;1.10;;;0.70;;
42018;SDS011;27703;51.980;5.848;2023-06-24T13:50:08;1.50;;;0.80;;
42018;SDS011;27703;51.980;5.848;2023-06-24T13:52:34;3.05;;;0.77;;
42018;SDS011;27703;51.980;5.848;2023-06-24T13:55:00;1.25;;;0.50;;
42018;SDS011;27703;51.980;5.848;2023-06-24T13:57:25;2.42;;;0.85;;
42018;SDS011;27703;51.980;5.848;2023-06-24T13:59:51;1.70;;;0.90;;
42018;SDS011;27703;51.980;5.848;2023-06-24T14:02:16;1.75;;;0.80;;
42018;SDS011;27703;51.980;5.848;2023-06-24T14:04:44;1.88;;;0.63;;
42018;SDS011;27703;51.980;5.848;2023-06-24T14:07:09;2.08;;;0.75;;
42018;SDS011;27703;51.980;5.848;2023-06-24T14:09:36;2.10;;;0.80;;
42018;SDS011;27703;51.980;5.848;2023-06-24T14:12:03;1.20;;;0.60;;
42018;SDS011;27703;51.980;5.848;2023-06-24T14:14:29;4.15;;;0.70;;
42018;SDS011;27703;51.980;5.848;2023-06-24T14:16:55;2.35;;;0.85;;
42018;SDS011;27703;51.980;5.848;2023-06-24T14:19:20;2.20;;;1.08;;
42018;SDS011;27703;51.980;5.848;2023-06-24T14:21:46;2.17;;;0.60;;
42018;SDS011;27703;51.980;5.848;2023-06-24T14:24:11;1.65;;;0.88;;
42018;SDS011;27703;51.980;5.848;2023-06-24T14:26:37;1.60;;;0.80;;
42018;SDS011;27703;51.980;5.848;2023-06-24T14:29:03;1.05;;;0.70;;
42018;SDS011;27703;51.980;5.848;2023-06-24T14:31:28;1.50;;;0.63;;
42018;SDS011;27703;51.980;5.848;2023-06-24T14:33:54;1.02;;;0.80;;
42018;SDS011;27703;51.980;5.848;2023-06-24T14:36:19;3.83;;;1.10;;
42018;SDS011;27703;51.980;5.848;2023-06-24T14:38:45;2.95;;;0.82;;
42018;SDS011;27703;51.980;5.848;2023-06-24T14:41:11;2.97;;;0.80;;
42018;SDS011;27703;51.980;5.848;2023-06-24T14:43:36;2.25;;;0.80;;
42018;SDS011;27703;51.980;5.848;2023-06-24T14:46:02;1.48;;;1.02;;
42018;SDS011;27703;51.980;5.848;2023-06-24T14:48:28;1.30;;;0.82;;
42018;SDS011;27703;51.980;5.848;2023-06-24T14:50:53;1.45;;;0.70;;
42018;SDS011;27703;51.980;5.848;2023-06-24T14:53:19;2.30;;;0.98;;
42018;SDS011;27703;51.980;5.848;2023-06-24T14:55:45;1.50;;;0.90;;
42018;SDS011;27703;51.980;5.848;2023-06-24T14:58:11;1.92;;;0.90;;
42018;SDS011;27703;51.980;5.848;2023-06-24T15:00:37;1.70;;;0.73;;
42018;SDS011;27703;51.980;5.848;2023-06-24T15:03:03;1.98;;;0.70;;